sensor_id;sensor_type;location;lat;lon;timestamp;P1;durP1;ratioP1;P2;durP2;ratioP2
69837;SDS011;57135;51.992;4.476;2022-09-01T00:01:44;2.72;;;2.72;;
69837;SDS011;57135;51.992;4.476;2022-09-01T00:04:12;2.75;;;2.75;;
69837;SDS011;57135;51.992;4.476;2022-09-01T00:06:40;2.96;;;2.96;;
69837;SDS011;57135;51.992;4.476;2022-09-01T00:09:12;2.94;;;2.94;;
69837;SDS011;57135;51.992;4.476;2022-09-01T00:11:39;3.11;;;3.11;;
69837;SDS011;57135;51.992;4.476;2022-09-01T00:14:07;3.04;;;3.04;;
69837;SDS011;57135;51.992;4.476;2022-09-01T00:16:33;3.15;;;3.15;;
69837;SDS011;57135;51.992;4.476;2022-09-01T00:18:59;3.16;;;3.16;;
69837;SDS011;57135;51.992;4.476;2022-09-01T00:21:30;3.11;;;3.11;;
69837;SDS011;57135;51.992;4.476;2022-09-01T00:24:01;3.14;;;3.14;;
69837;SDS011;57135;51.992;4.476;2022-09-01T00:26:27;3.12;;;3.12;;
69837;SDS011;57135;51.992;4.476;2022-09-01T00:28:53;3.07;;;3.07;;
69837;SDS011;57135;51.992;4.476;2022-09-01T00:31:19;2.97;;;2.97;;
69837;SDS011;57135;51.992;4.476;2022-09-01T00:33:46;3.17;;;3.17;;
69837;SDS011;57135;51.992;4.476;2022-09-01T00:36:12;3.41;;;3.41;;
69837;SDS011;57135;51.992;4.476;2022-09-01T00:38:38;3.05;;;3.05;;
69837;SDS011;57135;51.992;4.476;2022-09-01T00:41:04;3.01;;;3.01;;
69837;SDS011;57135;51.992;4.476;2022-09-01T00:46:09;3.02;;;3.02;;
69837;SDS011;57135;51.992;4.476;2022-09-01T00:48:37;3.04;;;3.04;;
69837;SDS011;57135;51.992;4.476;2022-09-01T00:51:02;3.04;;;3.04;;
69837;SDS011;57135;51.992;4.476;2022-09-01T00:53:29;3.20;;;3.20;;
69837;SDS011;57135;51.992;4.476;2022-09-01T00:55:55;2.77;;;2.77;;
69837;SDS011;57135;51.992;4.476;2022-09-01T00:58:21;3.08;;;3.08;;
69837;SDS011;57135;51.992;4.476;2022-09-01T01:00:47;3.02;;;3.02;;
69837;SDS011;57135;51.992;4.476;2022-09-01T01:03:16;3.15;;;3.15;;
69837;SDS011;57135;51.992;4.476;2022-09-01T01:05:44;2.85;;;2.85;;
69837;SDS011;57135;51.992;4.476;2022-09-01T01:08:18;2.86;;;2.86;;
69837;SDS011;57135;51.992;4.476;2022-09-01T01:10:58;2.77;;;2.77;;
69837;SDS011;57135;51.992;4.476;2022-09-01T01:13:25;2.93;;;2.93;;
69837;SDS011;57135;51.992;4.476;2022-09-01T01:15:53;2.70;;;2.70;;
69837;SDS011;57135;51.992;4.476;2022-09-01T01:18:18;2.73;;;2.73;;
69837;SDS011;57135;51.992;4.476;2022-09-01T01:20:44;3.06;;;3.06;;
69837;SDS011;57135;51.992;4.476;2022-09-01T01:23:38;2.86;;;2.86;;
69837;SDS011;57135;51.992;4.476;2022-09-01T01:26:09;2.79;;;2.79;;
69837;SDS011;57135;51.992;4.476;2022-09-01T01:28:36;2.72;;;2.72;;
69837;SDS011;57135;51.992;4.476;2022-09-01T01:31:06;2.88;;;2.88;;
69837;SDS011;57135;51.992;4.476;2022-09-01T01:33:47;2.90;;;2.90;;
69837;SDS011;57135;51.992;4.476;2022-09-01T01:36:16;2.75;;;2.75;;
69837;SDS011;57135;51.992;4.476;2022-09-01T01:38:44;2.78;;;2.78;;
69837;SDS011;57135;51.992;4.476;2022-09-01T01:41:11;2.67;;;2.67;;
69837;SDS011;57135;51.992;4.476;2022-09-01T01:43:38;2.69;;;2.69;;
69837;SDS011;57135;51.992;4.476;2022-09-01T01:46:09;2.81;;;2.81;;
69837;SDS011;57135;51.992;4.476;2022-09-01T01:48:35;3.00;;;3.00;;
69837;SDS011;57135;51.992;4.476;2022-09-01T01:51:04;2.69;;;2.69;;
69837;SDS011;57135;51.992;4.476;2022-09-01T01:53:30;2.96;;;2.96;;
69837;SDS011;57135;51.992;4.476;2022-09-01T01:55:56;3.06;;;3.06;;
69837;SDS011;57135;51.992;4.476;2022-09-01T01:58:24;2.81;;;2.81;;
69837;SDS011;57135;51.992;4.476;2022-09-01T02:00:53;2.82;;;2.82;;
69837;SDS011;57135;51.992;4.476;2022-09-01T02:03:21;2.86;;;2.86;;
69837;SDS011;57135;51.992;4.476;2022-09-01T02:05:50;2.62;;;2.62;;
69837;SDS011;57135;51.992;4.476;2022-09-01T02:08:17;2.79;;;2.79;;
69837;SDS011;57135;51.992;4.476;2022-09-01T02:10:45;2.79;;;2.79;;
69837;SDS011;57135;51.992;4.476;2022-09-01T02:13:14;2.76;;;2.76;;
69837;SDS011;57135;51.992;4.476;2022-09-01T02:15:43;2.92;;;2.92;;
69837;SDS011;57135;51.992;4.476;2022-09-01T02:18:10;3.08;;;3.08;;
69837;SDS011;57135;51.992;4.476;2022-09-01T02:20:42;2.87;;;2.87;;
69837;SDS011;57135;51.992;4.476;2022-09-01T02:23:08;2.91;;;2.91;;
69837;SDS011;57135;51.992;4.476;2022-09-01T02:25:42;3.10;;;3.10;;
69837;SDS011;57135;51.992;4.476;2022-09-01T02:28:09;3.08;;;3.08;;
69837;SDS011;57135;51.992;4.476;2022-09-01T02:30:40;3.03;;;3.03;;
69837;SDS011;57135;51.992;4.476;2022-09-01T02:33:07;3.05;;;3.05;;
69837;SDS011;57135;51.992;4.476;2022-09-01T02:35:35;2.99;;;2.99;;
69837;SDS011;57135;51.992;4.476;2022-09-01T02:38:05;2.96;;;2.96;;
69837;SDS011;57135;51.992;4.476;2022-09-01T02:40:31;3.23;;;3.23;;
69837;SDS011;57135;51.992;4.476;2022-09-01T02:42:58;3.12;;;3.12;;
69837;SDS011;57135;51.992;4.476;2022-09-01T02:45:26;3.24;;;3.24;;
69837;SDS011;57135;51.992;4.476;2022-09-01T02:47:54;3.20;;;3.20;;
69837;SDS011;57135;51.992;4.476;2022-09-01T02:50:21;3.19;;;3.19;;
69837;SDS011;57135;51.992;4.476;2022-09-01T02:52:49;3.20;;;3.20;;
69837;SDS011;57135;51.992;4.476;2022-09-01T02:55:17;3.40;;;3.40;;
69837;SDS011;57135;51.992;4.476;2022-09-01T02:57:46;3.16;;;3.16;;
69837;SDS011;57135;51.992;4.476;2022-09-01T03:00:19;3.25;;;3.25;;
69837;SDS011;57135;51.992;4.476;2022-09-01T03:02:50;3.54;;;3.54;;
69837;SDS011;57135;51.992;4.476;2022-09-01T03:05:20;3.41;;;3.41;;
69837;SDS011;57135;51.992;4.476;2022-09-01T03:07:53;3.33;;;3.33;;
69837;SDS011;57135;51.992;4.476;2022-09-01T03:10:26;3.34;;;3.34;;
69837;SDS011;57135;51.992;4.476;2022-09-01T03:12:57;3.24;;;3.24;;
69837;SDS011;57135;51.992;4.476;2022-09-01T03:15:33;3.28;;;3.28;;
69837;SDS011;57135;51.992;4.476;2022-09-01T03:18:01;3.30;;;3.30;;
69837;SDS011;57135;51.992;4.476;2022-09-01T03:20:28;3.31;;;3.31;;
69837;SDS011;57135;51.992;4.476;2022-09-01T03:22:58;3.40;;;3.40;;
69837;SDS011;57135;51.992;4.476;2022-09-01T03:25:24;3.43;;;3.43;;
69837;SDS011;57135;51.992;4.476;2022-09-01T03:27:51;3.31;;;3.31;;
69837;SDS011;57135;51.992;4.476;2022-09-01T03:30:17;3.30;;;3.30;;
69837;SDS011;57135;51.992;4.476;2022-09-01T03:32:43;3.67;;;3.67;;
69837;SDS011;57135;51.992;4.476;2022-09-01T03:35:09;3.46;;;3.46;;
69837;SDS011;57135;51.992;4.476;2022-09-01T03:37:36;3.30;;;3.30;;
69837;SDS011;57135;51.992;4.476;2022-09-01T03:40:04;3.39;;;3.39;;
69837;SDS011;57135;51.992;4.476;2022-09-01T03:42:31;3.47;;;3.47;;
69837;SDS011;57135;51.992;4.476;2022-09-01T03:44:56;3.41;;;3.41;;
69837;SDS011;57135;51.992;4.476;2022-09-01T03:47:23;3.54;;;3.54;;
69837;SDS011;57135;51.992;4.476;2022-09-01T03:49:49;3.50;;;3.50;;
69837;SDS011;57135;51.992;4.476;2022-09-01T03:52:16;3.69;;;3.69;;
69837;SDS011;57135;51.992;4.476;2022-09-01T03:54:42;3.55;;;3.55;;
69837;SDS011;57135;51.992;4.476;2022-09-01T03:57:09;3.70;;;3.70;;
69837;SDS011;57135;51.992;4.476;2022-09-01T03:59:35;3.43;;;3.43;;
69837;SDS011;57135;51.992;4.476;2022-09-01T04:02:05;3.65;;;3.65;;
69837;SDS011;57135;51.992;4.476;2022-09-01T04:04:30;3.79;;;3.79;;
69837;SDS011;57135;51.992;4.476;2022-09-01T04:06:57;3.75;;;3.75;;
69837;SDS011;57135;51.992;4.476;2022-09-01T04:09:24;3.82;;;3.82;;
69837;SDS011;57135;51.992;4.476;2022-09-01T04:11:51;3.73;;;3.73;;
69837;SDS011;57135;51.992;4.476;2022-09-01T04:14:17;4.00;;;4.00;;
69837;SDS011;57135;51.992;4.476;2022-09-01T04:16:43;3.79;;;3.79;;
69837;SDS011;57135;51.992;4.476;2022-09-01T04:19:28;3.74;;;3.74;;
69837;SDS011;57135;51.992;4.476;2022-09-01T04:22:01;4.03;;;4.03;;
69837;SDS011;57135;51.992;4.476;2022-09-01T04:24:29;3.95;;;3.95;;
69837;SDS011;57135;51.992;4.476;2022-09-01T04:26:59;3.86;;;3.86;;
69837;SDS011;57135;51.992;4.476;2022-09-01T04:29:26;3.80;;;3.80;;
69837;SDS011;57135;51.992;4.476;2022-09-01T04:31:54;3.86;;;3.86;;
69837;SDS011;57135;51.992;4.476;2022-09-01T04:34:25;4.04;;;4.04;;
69837;SDS011;57135;51.992;4.476;2022-09-01T04:36:52;4.29;;;4.29;;
69837;SDS011;57135;51.992;4.476;2022-09-01T04:39:19;3.85;;;3.85;;
69837;SDS011;57135;51.992;4.476;2022-09-01T04:41:45;3.79;;;3.79;;
69837;SDS011;57135;51.992;4.476;2022-09-01T04:44:11;4.14;;;4.14;;
69837;SDS011;57135;51.992;4.476;2022-09-01T04:46:42;4.13;;;4.13;;
69837;SDS011;57135;51.992;4.476;2022-09-01T04:49:12;4.15;;;4.15;;
69837;SDS011;57135;51.992;4.476;2022-09-01T04:51:44;4.14;;;4.14;;
69837;SDS011;57135;51.992;4.476;2022-09-01T04:54:11;4.29;;;4.29;;
69837;SDS011;57135;51.992;4.476;2022-09-01T04:56:38;4.36;;;4.36;;
69837;SDS011;57135;51.992;4.476;2022-09-01T04:59:08;4.40;;;4.40;;
69837;SDS011;57135;51.992;4.476;2022-09-01T05:01:35;4.25;;;4.25;;
69837;SDS011;57135;51.992;4.476;2022-09-01T05:04:11;4.66;;;4.66;;
69837;SDS011;57135;51.992;4.476;2022-09-01T05:06:44;4.44;;;4.44;;
69837;SDS011;57135;51.992;4.476;2022-09-01T05:09:13;4.43;;;4.43;;
69837;SDS011;57135;51.992;4.476;2022-09-01T05:11:41;4.70;;;4.70;;
69837;SDS011;57135;51.992;4.476;2022-09-01T05:14:09;4.66;;;4.66;;
69837;SDS011;57135;51.992;4.476;2022-09-01T05:16:36;4.56;;;4.56;;
69837;SDS011;57135;51.992;4.476;2022-09-01T05:19:05;4.39;;;4.39;;
69837;SDS011;57135;51.992;4.476;2022-09-01T05:21:39;4.50;;;4.50;;
69837;SDS011;57135;51.992;4.476;2022-09-01T05:24:09;4.74;;;4.74;;
69837;SDS011;57135;51.992;4.476;2022-09-01T05:26:36;4.71;;;4.71;;
69837;SDS011;57135;51.992;4.476;2022-09-01T05:29:05;4.93;;;4.93;;
69837;SDS011;57135;51.992;4.476;2022-09-01T05:31:38;4.78;;;4.78;;
69837;SDS011;57135;51.992;4.476;2022-09-01T05:34:05;4.69;;;4.69;;
69837;SDS011;57135;51.992;4.476;2022-09-01T05:36:35;4.86;;;4.86;;
69837;SDS011;57135;51.992;4.476;2022-09-01T05:39:02;4.70;;;4.70;;
69837;SDS011;57135;51.992;4.476;2022-09-01T05:41:29;5.05;;;5.05;;
69837;SDS011;57135;51.992;4.476;2022-09-01T05:43:55;4.97;;;4.97;;
69837;SDS011;57135;51.992;4.476;2022-09-01T05:46:22;5.13;;;5.13;;
69837;SDS011;57135;51.992;4.476;2022-09-01T05:48:51;5.02;;;5.02;;
69837;SDS011;57135;51.992;4.476;2022-09-01T05:51:19;4.70;;;4.70;;
69837;SDS011;57135;51.992;4.476;2022-09-01T05:53:48;4.83;;;4.83;;
69837;SDS011;57135;51.992;4.476;2022-09-01T05:56:19;5.00;;;5.00;;
69837;SDS011;57135;51.992;4.476;2022-09-01T05:58:47;5.12;;;5.12;;
69837;SDS011;57135;51.992;4.476;2022-09-01T06:01:18;5.03;;;5.03;;
69837;SDS011;57135;51.992;4.476;2022-09-01T06:03:49;4.95;;;4.95;;
69837;SDS011;57135;51.992;4.476;2022-09-01T06:06:24;4.89;;;4.88;;
69837;SDS011;57135;51.992;4.476;2022-09-01T06:08:51;4.97;;;4.97;;
69837;SDS011;57135;51.992;4.476;2022-09-01T06:11:23;4.96;;;4.96;;
69837;SDS011;57135;51.992;4.476;2022-09-01T06:13:50;4.93;;;4.93;;
69837;SDS011;57135;51.992;4.476;2022-09-01T06:16:20;5.04;;;5.04;;
69837;SDS011;57135;51.992;4.476;2022-09-01T06:18:48;4.77;;;4.77;;
69837;SDS011;57135;51.992;4.476;2022-09-01T06:21:16;5.27;;;5.27;;
69837;SDS011;57135;51.992;4.476;2022-09-01T06:23:43;5.29;;;5.29;;
69837;SDS011;57135;51.992;4.476;2022-09-01T06:26:16;4.95;;;4.95;;
69837;SDS011;57135;51.992;4.476;2022-09-01T06:28:53;4.89;;;4.89;;
69837;SDS011;57135;51.992;4.476;2022-09-01T06:31:26;4.82;;;4.82;;
69837;SDS011;57135;51.992;4.476;2022-09-01T06:33:58;5.17;;;5.17;;
69837;SDS011;57135;51.992;4.476;2022-09-01T06:36:26;5.15;;;5.15;;
69837;SDS011;57135;51.992;4.476;2022-09-01T06:38:52;5.31;;;5.31;;
69837;SDS011;57135;51.992;4.476;2022-09-01T06:41:19;5.30;;;5.30;;
69837;SDS011;57135;51.992;4.476;2022-09-01T06:43:50;4.80;;;4.80;;
69837;SDS011;57135;51.992;4.476;2022-09-01T06:46:17;4.80;;;4.80;;
69837;SDS011;57135;51.992;4.476;2022-09-01T06:48:45;4.59;;;4.59;;
69837;SDS011;57135;51.992;4.476;2022-09-01T06:51:12;4.41;;;4.41;;
69837;SDS011;57135;51.992;4.476;2022-09-01T06:53:44;4.52;;;4.52;;
69837;SDS011;57135;51.992;4.476;2022-09-01T06:56:21;4.60;;;4.60;;
69837;SDS011;57135;51.992;4.476;2022-09-01T06:58:50;4.62;;;4.62;;
69837;SDS011;57135;51.992;4.476;2022-09-01T07:01:17;4.07;;;4.07;;
69837;SDS011;57135;51.992;4.476;2022-09-01T07:03:45;4.38;;;4.38;;
69837;SDS011;57135;51.992;4.476;2022-09-01T07:06:13;4.37;;;4.37;;
69837;SDS011;57135;51.992;4.476;2022-09-01T07:08:39;4.58;;;4.58;;
69837;SDS011;57135;51.992;4.476;2022-09-01T07:11:06;4.79;;;4.79;;
69837;SDS011;57135;51.992;4.476;2022-09-01T07:13:41;4.84;;;4.84;;
69837;SDS011;57135;51.992;4.476;2022-09-01T07:16:15;4.70;;;4.70;;
69837;SDS011;57135;51.992;4.476;2022-09-01T07:18:45;4.35;;;4.35;;
69837;SDS011;57135;51.992;4.476;2022-09-01T07:21:10;4.33;;;4.33;;
69837;SDS011;57135;51.992;4.476;2022-09-01T07:23:36;4.19;;;4.19;;
69837;SDS011;57135;51.992;4.476;2022-09-01T07:26:04;3.76;;;3.76;;
69837;SDS011;57135;51.992;4.476;2022-09-01T07:28:31;4.09;;;4.09;;
69837;SDS011;57135;51.992;4.476;2022-09-01T07:30:57;3.96;;;3.96;;
69837;SDS011;57135;51.992;4.476;2022-09-01T07:33:23;3.74;;;3.74;;
69837;SDS011;57135;51.992;4.476;2022-09-01T07:35:49;3.82;;;3.82;;
69837;SDS011;57135;51.992;4.476;2022-09-01T07:38:17;3.68;;;3.68;;
69837;SDS011;57135;51.992;4.476;2022-09-01T07:40:44;3.65;;;3.65;;
69837;SDS011;57135;51.992;4.476;2022-09-01T07:43:15;3.71;;;3.71;;
69837;SDS011;57135;51.992;4.476;2022-09-01T07:45:47;3.73;;;3.73;;
69837;SDS011;57135;51.992;4.476;2022-09-01T07:48:15;3.80;;;3.80;;
69837;SDS011;57135;51.992;4.476;2022-09-01T07:50:45;4.02;;;4.02;;
69837;SDS011;57135;51.992;4.476;2022-09-01T07:53:15;3.90;;;3.90;;
69837;SDS011;57135;51.992;4.476;2022-09-01T07:55:43;3.80;;;3.80;;
69837;SDS011;57135;51.992;4.476;2022-09-01T07:58:11;3.65;;;3.65;;
69837;SDS011;57135;51.992;4.476;2022-09-01T08:00:40;3.71;;;3.71;;
69837;SDS011;57135;51.992;4.476;2022-09-01T08:03:10;3.93;;;3.93;;
69837;SDS011;57135;51.992;4.476;2022-09-01T08:05:36;3.77;;;3.77;;
69837;SDS011;57135;51.992;4.476;2022-09-01T08:08:02;3.81;;;3.81;;
69837;SDS011;57135;51.992;4.476;2022-09-01T08:10:28;3.96;;;3.96;;
69837;SDS011;57135;51.992;4.476;2022-09-01T08:12:55;3.96;;;3.96;;
69837;SDS011;57135;51.992;4.476;2022-09-01T08:15:20;3.97;;;3.97;;
69837;SDS011;57135;51.992;4.476;2022-09-01T08:17:46;3.93;;;3.93;;
69837;SDS011;57135;51.992;4.476;2022-09-01T08:20:11;3.95;;;3.95;;
69837;SDS011;57135;51.992;4.476;2022-09-01T08:22:37;3.70;;;3.70;;
69837;SDS011;57135;51.992;4.476;2022-09-01T08:25:04;3.72;;;3.72;;
69837;SDS011;57135;51.992;4.476;2022-09-01T08:27:34;3.63;;;3.63;;
69837;SDS011;57135;51.992;4.476;2022-09-01T08:30:06;3.79;;;3.79;;
69837;SDS011;57135;51.992;4.476;2022-09-01T08:32:34;4.21;;;4.21;;
69837;SDS011;57135;51.992;4.476;2022-09-01T08:35:00;4.23;;;4.23;;
69837;SDS011;57135;51.992;4.476;2022-09-01T08:37:26;4.26;;;4.26;;
69837;SDS011;57135;51.992;4.476;2022-09-01T08:39:52;3.99;;;3.99;;
69837;SDS011;57135;51.992;4.476;2022-09-01T08:47:38;4.07;;;4.07;;
69837;SDS011;57135;51.992;4.476;2022-09-01T08:50:03;4.03;;;4.03;;
69837;SDS011;57135;51.992;4.476;2022-09-01T08:57:41;3.99;;;3.99;;
69837;SDS011;57135;51.992;4.476;2022-09-01T09:00:09;4.72;;;4.68;;
69837;SDS011;57135;51.992;4.476;2022-09-01T09:02:46;3.82;;;3.82;;
69837;SDS011;57135;51.992;4.476;2022-09-01T09:05:30;3.68;;;3.68;;
69837;SDS011;57135;51.992;4.476;2022-09-01T09:14:25;3.22;;;3.22;;
69837;SDS011;57135;51.992;4.476;2022-09-01T09:17:00;3.36;;;3.36;;
69837;SDS011;57135;51.992;4.476;2022-09-01T09:20:02;3.18;;;3.18;;
69837;SDS011;57135;51.992;4.476;2022-09-01T09:22:20;3.16;;;3.16;;
69837;SDS011;57135;51.992;4.476;2022-09-01T09:24:47;3.33;;;3.33;;
69837;SDS011;57135;51.992;4.476;2022-09-01T09:27:20;3.64;;;3.64;;
69837;SDS011;57135;51.992;4.476;2022-09-01T09:29:50;3.39;;;3.39;;
69837;SDS011;57135;51.992;4.476;2022-09-01T09:32:18;3.31;;;3.31;;
69837;SDS011;57135;51.992;4.476;2022-09-01T09:34:45;3.57;;;3.57;;
69837;SDS011;57135;51.992;4.476;2022-09-01T09:48:10;3.36;;;3.36;;
69837;SDS011;57135;51.992;4.476;2022-09-01T09:50:54;3.27;;;3.27;;
69837;SDS011;57135;51.992;4.476;2022-09-01T09:58:21;3.01;;;3.01;;
69837;SDS011;57135;51.992;4.476;2022-09-01T10:00:57;3.03;;;3.03;;
69837;SDS011;57135;51.992;4.476;2022-09-01T10:06:55;2.96;;;2.96;;
69837;SDS011;57135;51.992;4.476;2022-09-01T10:09:48;2.91;;;2.91;;
69837;SDS011;57135;51.992;4.476;2022-09-01T10:11:54;2.96;;;2.96;;
69837;SDS011;57135;51.992;4.476;2022-09-01T10:14:32;2.91;;;2.91;;
69837;SDS011;57135;51.992;4.476;2022-09-01T10:17:05;2.52;;;2.52;;
69837;SDS011;57135;51.992;4.476;2022-09-01T10:20:16;2.21;;;2.21;;
69837;SDS011;57135;51.992;4.476;2022-09-01T10:22:39;2.14;;;2.14;;
69837;SDS011;57135;51.992;4.476;2022-09-01T10:25:06;2.26;;;2.26;;
69837;SDS011;57135;51.992;4.476;2022-09-01T10:27:39;2.11;;;2.11;;
69837;SDS011;57135;51.992;4.476;2022-09-01T10:32:42;1.96;;;1.96;;
69837;SDS011;57135;51.992;4.476;2022-09-01T10:35:14;2.17;;;2.17;;
69837;SDS011;57135;51.992;4.476;2022-09-01T10:37:43;2.24;;;2.24;;
69837;SDS011;57135;51.992;4.476;2022-09-01T10:40:33;2.00;;;2.00;;
69837;SDS011;57135;51.992;4.476;2022-09-01T10:45:54;2.10;;;2.10;;
69837;SDS011;57135;51.992;4.476;2022-09-01T10:50:45;2.23;;;2.23;;
69837;SDS011;57135;51.992;4.476;2022-09-01T10:56:01;2.05;;;2.05;;
69837;SDS011;57135;51.992;4.476;2022-09-01T10:58:44;2.01;;;2.01;;
69837;SDS011;57135;51.992;4.476;2022-09-01T11:07:00;1.86;;;1.86;;
69837;SDS011;57135;51.992;4.476;2022-09-01T11:09:45;2.08;;;2.08;;
69837;SDS011;57135;51.992;4.476;2022-09-01T11:12:44;1.96;;;1.96;;
69837;SDS011;57135;51.992;4.476;2022-09-01T11:15:51;2.20;;;2.20;;
69837;SDS011;57135;51.992;4.476;2022-09-01T11:18:24;2.09;;;2.09;;
69837;SDS011;57135;51.992;4.476;2022-09-01T11:20:55;1.90;;;1.90;;
69837;SDS011;57135;51.992;4.476;2022-09-01T11:23:39;2.03;;;2.03;;
69837;SDS011;57135;51.992;4.476;2022-09-01T11:29:08;1.86;;;1.86;;
69837;SDS011;57135;51.992;4.476;2022-09-01T11:32:12;2.18;;;2.18;;
69837;SDS011;57135;51.992;4.476;2022-09-01T11:34:41;2.26;;;2.26;;
69837;SDS011;57135;51.992;4.476;2022-09-01T11:37:13;2.12;;;2.12;;
69837;SDS011;57135;51.992;4.476;2022-09-01T11:39:44;2.02;;;2.02;;
69837;SDS011;57135;51.992;4.476;2022-09-01T11:44:47;2.12;;;2.12;;
69837;SDS011;57135;51.992;4.476;2022-09-01T11:47:48;2.08;;;2.08;;
69837;SDS011;57135;51.992;4.476;2022-09-01T11:50:19;2.14;;;2.14;;
69837;SDS011;57135;51.992;4.476;2022-09-01T11:52:51;2.08;;;2.08;;
69837;SDS011;57135;51.992;4.476;2022-09-01T11:55:35;2.13;;;2.13;;
69837;SDS011;57135;51.992;4.476;2022-09-01T11:58:09;2.22;;;2.22;;
69837;SDS011;57135;51.992;4.476;2022-09-01T12:00:37;1.97;;;1.97;;
69837;SDS011;57135;51.992;4.476;2022-09-01T12:03:09;2.30;;;2.30;;
69837;SDS011;57135;51.992;4.476;2022-09-01T12:05:48;1.96;;;1.96;;
69837;SDS011;57135;51.992;4.476;2022-09-01T12:08:23;2.06;;;2.06;;
69837;SDS011;57135;51.992;4.476;2022-09-01T12:11:01;2.14;;;2.14;;
69837;SDS011;57135;51.992;4.476;2022-09-01T12:13:29;2.05;;;2.05;;
69837;SDS011;57135;51.992;4.476;2022-09-01T12:15:56;2.08;;;2.08;;
69837;SDS011;57135;51.992;4.476;2022-09-01T12:18:26;2.03;;;2.03;;
69837;SDS011;57135;51.992;4.476;2022-09-01T12:20:54;1.96;;;1.96;;
69837;SDS011;57135;51.992;4.476;2022-09-01T12:23:30;1.92;;;1.92;;
69837;SDS011;57135;51.992;4.476;2022-09-01T12:26:22;1.78;;;1.78;;
69837;SDS011;57135;51.992;4.476;2022-09-01T12:28:47;1.74;;;1.74;;
69837;SDS011;57135;51.992;4.476;2022-09-01T12:31:15;1.82;;;1.82;;
69837;SDS011;57135;51.992;4.476;2022-09-01T12:33:44;1.86;;;1.86;;
69837;SDS011;57135;51.992;4.476;2022-09-01T12:38:54;1.80;;;1.80;;
69837;SDS011;57135;51.992;4.476;2022-09-01T12:41:30;1.82;;;1.82;;
69837;SDS011;57135;51.992;4.476;2022-09-01T12:46:54;1.86;;;1.86;;
69837;SDS011;57135;51.992;4.476;2022-09-01T12:49:22;1.83;;;1.83;;
69837;SDS011;57135;51.992;4.476;2022-09-01T12:54:40;1.80;;;1.80;;
69837;SDS011;57135;51.992;4.476;2022-09-01T12:57:05;1.81;;;1.81;;
69837;SDS011;57135;51.992;4.476;2022-09-01T12:59:31;1.90;;;1.90;;
69837;SDS011;57135;51.992;4.476;2022-09-01T13:01:57;1.69;;;1.69;;
69837;SDS011;57135;51.992;4.476;2022-09-01T13:04:53;1.92;;;1.92;;
69837;SDS011;57135;51.992;4.476;2022-09-01T13:07:18;1.74;;;1.74;;
69837;SDS011;57135;51.992;4.476;2022-09-01T13:09:44;1.50;;;1.50;;
69837;SDS011;57135;51.992;4.476;2022-09-01T13:12:19;1.65;;;1.65;;
69837;SDS011;57135;51.992;4.476;2022-09-01T13:14:45;1.75;;;1.75;;
69837;SDS011;57135;51.992;4.476;2022-09-01T13:17:11;1.58;;;1.58;;
69837;SDS011;57135;51.992;4.476;2022-09-01T13:19:37;1.57;;;1.57;;
69837;SDS011;57135;51.992;4.476;2022-09-01T13:22:03;1.75;;;1.75;;
69837;SDS011;57135;51.992;4.476;2022-09-01T13:24:29;1.56;;;1.56;;
69837;SDS011;57135;51.992;4.476;2022-09-01T13:26:54;1.72;;;1.72;;
69837;SDS011;57135;51.992;4.476;2022-09-01T13:29:20;1.83;;;1.83;;
69837;SDS011;57135;51.992;4.476;2022-09-01T13:31:46;1.77;;;1.77;;
69837;SDS011;57135;51.992;4.476;2022-09-01T13:34:11;1.73;;;1.73;;
69837;SDS011;57135;51.992;4.476;2022-09-01T13:36:37;1.83;;;1.83;;
69837;SDS011;57135;51.992;4.476;2022-09-01T13:39:02;1.79;;;1.79;;
69837;SDS011;57135;51.992;4.476;2022-09-01T13:41:28;1.74;;;1.74;;
69837;SDS011;57135;51.992;4.476;2022-09-01T13:43:55;1.67;;;1.67;;
69837;SDS011;57135;51.992;4.476;2022-09-01T13:46:21;1.51;;;1.51;;
69837;SDS011;57135;51.992;4.476;2022-09-01T13:48:46;1.46;;;1.46;;
69837;SDS011;57135;51.992;4.476;2022-09-01T13:51:12;1.56;;;1.56;;
69837;SDS011;57135;51.992;4.476;2022-09-01T13:53:37;1.71;;;1.71;;
69837;SDS011;57135;51.992;4.476;2022-09-01T13:56:03;1.66;;;1.66;;
69837;SDS011;57135;51.992;4.476;2022-09-01T13:58:28;1.58;;;1.58;;
69837;SDS011;57135;51.992;4.476;2022-09-01T14:00:54;1.56;;;1.56;;
69837;SDS011;57135;51.992;4.476;2022-09-01T14:03:21;1.58;;;1.58;;
69837;SDS011;57135;51.992;4.476;2022-09-01T14:05:48;1.62;;;1.62;;
69837;SDS011;57135;51.992;4.476;2022-09-01T14:08:15;1.43;;;1.43;;
69837;SDS011;57135;51.992;4.476;2022-09-01T14:10:44;1.49;;;1.49;;
69837;SDS011;57135;51.992;4.476;2022-09-01T14:13:12;1.60;;;1.60;;
69837;SDS011;57135;51.992;4.476;2022-09-01T14:15:39;1.60;;;1.60;;
69837;SDS011;57135;51.992;4.476;2022-09-01T14:18:05;1.57;;;1.57;;
69837;SDS011;57135;51.992;4.476;2022-09-01T14:20:35;1.31;;;1.30;;
69837;SDS011;57135;51.992;4.476;2022-09-01T14:23:04;1.37;;;1.37;;
69837;SDS011;57135;51.992;4.476;2022-09-01T14:25:31;1.36;;;1.36;;
69837;SDS011;57135;51.992;4.476;2022-09-01T14:27:57;1.49;;;1.49;;
69837;SDS011;57135;51.992;4.476;2022-09-01T14:30:25;1.57;;;1.57;;
69837;SDS011;57135;51.992;4.476;2022-09-01T14:32:53;1.51;;;1.51;;
69837;SDS011;57135;51.992;4.476;2022-09-01T14:35:19;1.47;;;1.47;;
69837;SDS011;57135;51.992;4.476;2022-09-01T14:37:48;1.33;;;1.33;;
69837;SDS011;57135;51.992;4.476;2022-09-01T14:40:14;1.36;;;1.36;;
69837;SDS011;57135;51.992;4.476;2022-09-01T14:42:44;1.33;;;1.33;;
69837;SDS011;57135;51.992;4.476;2022-09-01T14:45:14;1.42;;;1.42;;
69837;SDS011;57135;51.992;4.476;2022-09-01T14:47:47;1.20;;;1.20;;
69837;SDS011;57135;51.992;4.476;2022-09-01T14:50:15;1.17;;;1.17;;
69837;SDS011;57135;51.992;4.476;2022-09-01T14:52:41;1.21;;;1.21;;
69837;SDS011;57135;51.992;4.476;2022-09-01T14:55:08;1.47;;;1.47;;
69837;SDS011;57135;51.992;4.476;2022-09-01T14:57:35;1.41;;;1.40;;
69837;SDS011;57135;51.992;4.476;2022-09-01T15:00:00;1.29;;;1.29;;
69837;SDS011;57135;51.992;4.476;2022-09-01T15:02:26;1.21;;;1.21;;
69837;SDS011;57135;51.992;4.476;2022-09-01T15:04:53;1.23;;;1.23;;
69837;SDS011;57135;51.992;4.476;2022-09-01T15:07:19;1.23;;;1.23;;
69837;SDS011;57135;51.992;4.476;2022-09-01T15:09:45;1.28;;;1.28;;
69837;SDS011;57135;51.992;4.476;2022-09-01T15:12:10;1.15;;;1.15;;
69837;SDS011;57135;51.992;4.476;2022-09-01T15:14:36;1.33;;;1.33;;
69837;SDS011;57135;51.992;4.476;2022-09-01T15:17:02;1.30;;;1.30;;
69837;SDS011;57135;51.992;4.476;2022-09-01T15:19:28;1.27;;;1.27;;
69837;SDS011;57135;51.992;4.476;2022-09-01T15:21:53;1.46;;;1.46;;
69837;SDS011;57135;51.992;4.476;2022-09-01T15:24:19;1.26;;;1.26;;
69837;SDS011;57135;51.992;4.476;2022-09-01T15:26:45;1.35;;;1.35;;
69837;SDS011;57135;51.992;4.476;2022-09-01T15:29:11;1.24;;;1.24;;
69837;SDS011;57135;51.992;4.476;2022-09-01T15:31:39;1.29;;;1.29;;
69837;SDS011;57135;51.992;4.476;2022-09-01T15:34:06;1.50;;;1.50;;
69837;SDS011;57135;51.992;4.476;2022-09-01T15:36:33;1.51;;;1.51;;
69837;SDS011;57135;51.992;4.476;2022-09-01T15:38:59;1.59;;;1.59;;
69837;SDS011;57135;51.992;4.476;2022-09-01T15:41:26;1.47;;;1.47;;
69837;SDS011;57135;51.992;4.476;2022-09-01T15:43:54;1.48;;;1.48;;
69837;SDS011;57135;51.992;4.476;2022-09-01T15:46:20;1.38;;;1.38;;
69837;SDS011;57135;51.992;4.476;2022-09-01T15:48:46;1.30;;;1.30;;
69837;SDS011;57135;51.992;4.476;2022-09-01T15:51:56;1.40;;;1.40;;
69837;SDS011;57135;51.992;4.476;2022-09-01T15:54:07;1.38;;;1.38;;
69837;SDS011;57135;51.992;4.476;2022-09-01T15:56:34;1.73;;;1.73;;
69837;SDS011;57135;51.992;4.476;2022-09-01T15:59:01;1.50;;;1.50;;
69837;SDS011;57135;51.992;4.476;2022-09-01T16:01:28;1.63;;;1.63;;
69837;SDS011;57135;51.992;4.476;2022-09-01T16:03:57;1.46;;;1.46;;
69837;SDS011;57135;51.992;4.476;2022-09-01T16:06:22;1.45;;;1.45;;
69837;SDS011;57135;51.992;4.476;2022-09-01T16:08:49;1.45;;;1.45;;
69837;SDS011;57135;51.992;4.476;2022-09-01T16:11:15;1.48;;;1.48;;